Estación Meteorológica Peña el Pijo (Robertgarden) [ 11/20/18 00:40:35 CET ]

Fecha Hora Presion(HPa) Temp (°C) Humedad % Rocio (°C) Viento ( m/s) Direccion Lluvia 1Hora(mm) Lluvia 24H(mm) LLuvia Total(mm)
2018-Nov-05 01:01:54 998.500 2.5 80 -0.6         94.79
2018-Nov-05 02:02:13 997.500 2.5 81 -0.4         94.79
2018-Nov-05 03:07:03 997.100 2.2 82 -0.6         94.79
2018-Nov-05 04:01:48 996.000 2.4 83 -0.2         94.79
2018-Nov-05 05:01:42 995.400 2.9 84 0.4         94.79
2018-Nov-05 06:01:44 994.800 3.3 84 0.8         94.79
2018-Nov-05 07:01:51 994.600 3.5 85 1.2         94.79
2018-Nov-05 08:01:53 994.400 4.4 85 2.1         94.79
2018-Nov-05 09:01:59 994.700 5.9 84 3.4         94.79
2018-Nov-05 10:01:48 996.000 7.8 83 5.1 1.0 NW     94.79
2018-Nov-05 11:01:49 996.700 7.6 81 4.6         94.79
2018-Nov-05 12:01:49 995.300 8.6 72 3.8 1.1 WNW     94.79
2018-Nov-05 13:01:44 995.700 8.3 64 1.9 0.6 NNW     94.79
2018-Nov-05 14:01:42 995.100 7.4 65 1.2         94.79
2018-Nov-05 15:01:46 995.500 7.6 65 1.4         94.79
2018-Nov-05 16:01:42 995.600 8.8 63 1.8         94.79
2018-Nov-05 17:01:49 996.500 7.3 69 2.0         94.79
2018-Nov-05 18:01:46 996.900 5.6 75 1.5     0.51 0.51 95.31
2018-Nov-05 19:01:34 997.600 5.1 80 1.9       0.51 95.31
2018-Nov-05 20:01:35 997.600 3.6 82 0.8     0.51 1.55 96.34
2018-Nov-05 21:01:51 998.400 4.9 83 2.2 1.9 NW   1.55 96.34
2018-Nov-05 22:01:28 998.800 5.3 80 2.1       1.55 96.34
2018-Nov-05 23:01:26 998.900 5.5 78 1.9       1.55 96.34

Temperatura Máxima:    Temperatura Mínima:
Presión Máxima:998.900 Hpa    Presión Mínima:994.400 Hpa


Volver